Time;durP1;ratioP1;P1;durP2;ratioP2;P2;SDS_P1;SDS_P2;PMS_P1;PMS_P2;Temp;Humidity;BMP_temperature;BMP_pressure;BME280_temperature;BME280_humidity;BME280_pressure;Samples;Min_cycle;Max_cycle;Signal;HPM_P1;HPM_P2
2022/08/31 00:06:02;;;;;;;4.07;3.10;;;;;;;16.07;71.50;101991.00;5014013;28;20512;-65
2022/08/31 00:08:30;;;;;;;4.53;3.20;;;;;;;16.03;72.03;101986.75;5043489;28;20082;-67
2022/08/31 00:10:55;;;;;;;3.65;3.05;;;;;;;16.01;72.01;101991.50;5045235;28;20033;-65
2022/08/31 00:13:22;;;;;;;4.93;3.22;;;;;;;15.98;72.13;101988.97;5020236;28;20042;-65
2022/08/31 00:15:48;;;;;;;9.77;3.40;;;;;;;15.93;72.49;101995.81;5025605;28;20366;-65
2022/08/31 00:18:15;;;;;;;4.25;3.25;;;;;;;15.89;73.41;101986.94;5025027;28;20460;-65
2022/08/31 00:20:42;;;;;;;5.35;3.40;;;;;;;15.83;73.56;101987.41;5007942;28;20437;-67
2022/08/31 00:23:10;;;;;;;5.50;2.90;;;;;;;15.82;72.84;101988.41;5020015;28;20085;-65
2022/08/31 00:25:37;;;;;;;3.90;3.47;;;;;;;15.80;73.92;101993.13;5027867;28;20130;-65
2022/08/31 00:28:03;;;;;;;6.32;3.45;;;;;;;15.77;73.26;101979.66;5013381;28;20030;-66
2022/08/31 00:30:30;;;;;;;5.05;3.47;;;;;;;15.76;73.46;101983.38;5010422;28;20050;-65
2022/08/31 00:32:56;;;;;;;4.13;2.80;;;;;;;15.78;73.25;101986.91;5011778;28;20442;-66
2022/08/31 00:35:22;;;;;;;3.78;3.20;;;;;;;15.73;74.55;101990.00;5027903;28;20547;-65
2022/08/31 00:37:47;;;;;;;5.47;3.13;;;;;;;15.70;73.93;101987.47;5029310;28;20072;-65
2022/08/31 00:40:13;;;;;;;4.65;3.08;;;;;;;15.71;73.44;101989.22;5027874;28;20037;-65
2022/08/31 00:42:38;;;;;;;5.32;3.60;;;;;;;15.68;74.41;101985.84;5027541;28;20064;-66
2022/08/31 00:45:06;;;;;;;5.35;3.13;;;;;;;15.68;74.95;101989.47;5027725;28;20091;-65
2022/08/31 00:47:31;;;;;;;5.72;3.63;;;;;;;15.66;74.32;101985.94;5026492;28;20036;-65
2022/08/31 00:49:58;;;;;;;4.20;3.35;;;;;;;15.69;75.07;101985.72;5035225;28;20033;-65
2022/08/31 00:52:32;;;;;;;3.58;3.22;;;;;;;15.68;74.77;101983.09;5029484;28;20488;-65
2022/08/31 00:55:01;;;;;;;5.18;2.90;;;;;;;15.65;74.43;101986.94;5027449;28;20048;-65
2022/08/31 00:57:35;;;;;;;4.53;3.45;;;;;;;15.68;74.74;101985.84;5024048;28;20038;-65
2022/08/31 01:00:06;;;;;;;4.20;3.10;;;;;;;15.72;74.44;101987.38;5028794;28;20099;-66
2022/08/31 01:02:32;;;;;;;4.20;2.92;;;;;;;15.72;74.97;101981.88;5028726;28;20659;-65
2022/08/31 01:04:57;;;;;;;4.97;3.20;;;;;;;15.70;74.55;101986.59;5011290;28;20137;-66
2022/08/31 01:07:23;;;;;;;4.15;3.25;;;;;;;15.68;75.07;101983.97;5028993;28;20076;-65
2022/08/31 01:09:48;;;;;;;4.80;3.25;;;;;;;15.70;74.39;101986.59;5027170;28;20091;-64
2022/08/31 01:12:14;;;;;;;5.82;3.38;;;;;;;15.70;74.27;101987.47;5027461;28;20040;-64
2022/08/31 01:14:41;;;;;;;3.50;2.97;;;;;;;15.70;74.34;101981.97;5015886;28;20029;-65
2022/08/31 01:17:07;;;;;;;4.15;2.85;;;;;;;15.65;75.00;101981.47;5021314;28;20409;-65
2022/08/31 01:19:37;;;;;;;6.53;2.75;;;;;;;15.62;74.81;101981.69;5026566;28;20136;-65
2022/08/31 01:22:27;;;;;;;5.65;3.00;;;;;;;15.57;74.42;101979.28;5017875;28;20519;-66
2022/08/31 01:24:54;;;;;;;3.85;3.00;;;;;;;15.53;75.03;101975.00;5039388;28;20051;-65
2022/08/31 01:27:26;;;;;;;7.85;3.72;;;;;;;15.53;75.05;101971.41;5031179;28;20156;-65
2022/08/31 01:29:52;;;;;;;4.53;3.03;;;;;;;15.52;75.50;101978.72;5006949;28;20038;-64
2022/08/31 01:32:17;;;;;;;2.85;2.60;;;;;;;15.52;74.70;101970.50;5008620;28;20045;-66
2022/08/31 01:34:42;;;;;;;5.70;3.25;;;;;;;15.50;75.10;101971.63;5007238;28;20030;-65
2022/08/31 01:37:08;;;;;;;5.32;3.38;;;;;;;15.48;75.80;101979.06;5006338;28;20033;-65
2022/08/31 01:39:33;;;;;;;5.45;2.83;;;;;;;15.44;75.70;101980.31;5006616;28;20501;-66
2022/08/31 01:41:59;;;;;;;4.03;2.90;;;;;;;15.40;75.67;101978.78;5017963;28;20040;-66
2022/08/31 01:44:26;;;;;;;6.93;3.03;;;;;;;15.39;75.65;101977.00;5006660;28;20497;-65
2022/08/31 01:46:52;;;;;;;5.00;2.90;;;;;;;15.37;76.07;101979.00;5029119;28;20042;-63
2022/08/31 01:49:19;;;;;;;3.85;2.90;;;;;;;15.34;76.18;101974.66;5039211;28;20503;-66
2022/08/31 01:51:47;;;;;;;6.35;2.85;;;;;;;15.32;75.48;101968.38;5042069;28;20396;-67
2022/08/31 01:54:14;;;;;;;4.63;3.40;;;;;;;15.31;75.85;101986.69;5006510;28;20501;-65
2022/08/31 01:56:43;;;;;;;4.25;2.80;;;;;;;15.28;75.58;101978.69;5008261;28;20068;-66
2022/08/31 01:59:16;;;;;;;4.30;2.75;;;;;;;15.25;75.24;101978.94;5006429;28;20444;-64
2022/08/31 02:01:58;;;;;;;4.18;2.78;;;;;;;15.25;76.20;101976.19;5008734;28;20113;-64
2022/08/31 02:04:27;;;;;;;3.63;2.97;;;;;;;15.21;75.99;101980.16;5006230;28;20030;-65
2022/08/31 02:06:56;;;;;;;5.70;2.97;;;;;;;15.17;75.71;101980.50;5023473;28;20725;-64
2022/08/31 02:09:23;;;;;;;3.03;2.40;;;;;;;15.15;75.25;101987.94;5006320;28;20029;-65
2022/08/31 02:11:49;;;;;;;7.53;3.30;;;;;;;15.08;76.80;101982.03;5008161;28;20519;-65
2022/08/31 02:14:17;;;;;;;7.22;3.60;;;;;;;15.07;76.52;101985.78;5006926;28;20029;-64
2022/08/31 02:16:43;;;;;;;4.03;2.53;;;;;;;15.05;76.14;101985.00;5006644;28;20401;-65
2022/08/31 02:19:09;;;;;;;4.07;2.60;;;;;;;15.01;75.71;101989.84;5014068;28;20602;-68
2022/08/31 02:21:35;;;;;;;4.07;3.30;;;;;;;14.98;76.34;101978.22;5027873;28;20025;-64
2022/08/31 02:24:01;;;;;;;4.82;3.45;;;;;;;14.98;76.67;101987.31;5025827;28;20033;-67
2022/08/31 02:26:26;;;;;;;4.82;3.00;;;;;;;14.96;77.19;101991.16;5023181;28;20120;-65
2022/08/31 02:28:52;;;;;;;4.53;2.78;;;;;;;14.90;76.75;101987.00;5005765;28;20507;-65
2022/08/31 02:31:18;;;;;;;4.70;2.70;;;;;;;14.90;76.93;101992.47;5022571;28;20552;-65
2022/08/31 02:33:51;;;;;;;;;;;;;;;14.95;74.62;101994.88;5006501;28;21873;-65
2022/08/31 02:36:19;;;;;;;5.35;3.15;;;;;;;14.87;77.25;101986.34;5026410;28;19916;-65
2022/08/31 02:38:44;;;;;;;4.68;3.42;;;;;;;14.85;76.97;101988.31;5035623;28;20514;-65
2022/08/31 02:41:09;;;;;;;4.18;2.50;;;;;;;14.85;75.96;101996.53;5043522;28;20106;-69
2022/08/31 02:43:37;;;;;;;3.50;2.72;;;;;;;14.78;76.72;101990.59;5024473;28;20044;-65
2022/08/31 02:46:03;;;;;;;4.88;2.92;;;;;;;14.72;77.91;101989.19;5025395;28;20049;-64
2022/08/31 02:48:34;;;;;;;4.10;2.88;;;;;;;14.70;77.15;101991.19;5024961;28;20178;-65
2022/08/31 02:51:06;;;;;;;6.05;2.97;;;;;;;14.65;77.58;101989.75;5025835;28;20120;-64
2022/08/31 02:53:32;;;;;;;5.10;2.70;;;;;;;14.65;76.81;101989.75;5026846;28;20075;-66
2022/08/31 02:55:57;;;;;;;4.03;3.08;;;;;;;14.61;77.83;101989.09;5027143;28;20690;-65
2022/08/31 02:58:23;;;;;;;5.82;3.17;;;;;;;14.59;78.35;101991.06;5020384;28;20485;-66
2022/08/31 03:00:48;;;;;;;4.18;3.13;;;;;;;14.54;77.29;101988.63;5005607;28;20367;-64
2022/08/31 03:03:15;;;;;;;4.05;2.70;;;;;;;14.52;77.15;101987.00;5005159;28;20041;-65
2022/08/31 03:05:42;;;;;;;5.10;2.53;;;;;;;14.48;77.29;101990.94;5024363;28;20048;-66
2022/08/31 03:08:08;;;;;;;3.70;2.80;;;;;;;14.44;77.57;101989.38;5025352;28;20029;-65
2022/08/31 03:10:34;;;;;;;3.38;2.63;;;;;;;14.40;77.52;101985.97;5033425;28;20033;-65
2022/08/31 03:13:00;;;;;;;3.33;3.03;;;;;;;14.38;78.21;101985.22;5027446;28;20508;-66
2022/08/31 03:15:25;;;;;;;7.03;3.20;;;;;;;14.39;78.93;101984.22;5025182;28;20036;-65
2022/08/31 03:17:52;;;;;;;3.58;3.10;;;;;;;14.39;78.58;101980.59;5024957;28;20418;-65
2022/08/31 03:20:21;;;;;;;5.25;3.28;;;;;;;14.36;78.74;101986.28;5021454;28;20045;-65
2022/08/31 03:22:47;;;;;;;6.22;3.03;;;;;;;14.35;77.65;101982.69;5016592;28;20033;-65
2022/08/31 03:25:15;;;;;;;3.33;2.72;;;;;;;14.30;77.37;101983.00;5024083;28;20038;-65
2022/08/31 03:27:40;;;;;;;4.55;3.10;;;;;;;14.27;78.20;101979.63;5023294;28;20116;-67
2022/08/31 03:30:10;;;;;;;3.80;2.65;;;;;;;14.21;78.19;101985.50;5024035;28;20143;-67
2022/08/31 03:32:38;;;;;;;5.65;2.85;;;;;;;14.21;77.66;101983.63;5042033;28;20028;-65
2022/08/31 03:35:05;;;;;;;4.18;3.13;;;;;;;14.19;77.80;101991.09;5028121;28;20437;-65
2022/08/31 03:37:31;;;;;;;6.10;2.75;;;;;;;14.16;77.53;101987.69;5004949;28;20075;-66
2022/08/31 03:39:58;;;;;;;4.22;3.00;;;;;;;14.13;78.12;101983.31;5022231;28;20120;-66
2022/08/31 03:42:25;;;;;;;5.85;3.00;;;;;;;14.09;77.43;101989.97;4994914;28;20168;-65
2022/08/31 03:44:51;;;;;;;3.85;2.45;;;;;;;14.08;77.49;101990.94;5034497;28;20067;-64
2022/08/31 03:47:21;;;;;;;4.60;2.90;;;;;;;14.04;77.95;101987.56;5044264;28;20492;-64
2022/08/31 03:49:47;;;;;;;3.78;2.72;;;;;;;14.02;77.36;101997.72;5035098;28;20509;-65
2022/08/31 03:52:20;;;;;;;4.25;3.17;;;;;;;14.01;78.55;101989.63;5037020;28;20033;-65
2022/08/31 03:54:50;;;;;;;7.03;3.20;;;;;;;13.97;78.14;101990.81;5024070;28;20666;-65
2022/08/31 03:57:15;;;;;;;5.50;2.88;;;;;;;13.95;78.42;101993.66;5023534;28;20128;-64
2022/08/31 03:59:41;;;;;;;5.15;3.00;;;;;;;13.93;78.42;101992.88;5022977;28;20029;-65
2022/08/31 04:02:19;;;;;;;7.43;3.10;;;;;;;13.91;77.82;101994.84;5040053;28;20536;-66
2022/08/31 04:05:14;;;;;;;4.78;3.30;;;;;;;13.88;77.23;101996.91;4994209;28;20054;-66
2022/08/31 04:07:58;;;;;;;5.45;3.45;;;;;;;13.81;78.58;101988.25;5026416;28;20099;-65
2022/08/31 04:10:53;;;;;;;7.07;3.50;;;;;;;13.77;77.91;101994.91;5008319;28;20067;-65
2022/08/31 04:13:18;;;;;;;4.72;3.53;;;;;;;13.74;78.87;101995.97;5025208;28;20425;-65
2022/08/31 04:16:10;;;;;;;3.22;2.92;;;;;;;13.75;77.17;101997.72;5025371;28;20048;-65
2022/08/31 04:18:54;;;;;;;3.08;2.75;;;;;;;13.72;78.08;101994.34;5025045;28;21348;-65
2022/08/31 04:21:24;;;;;;;4.80;3.08;;;;;;;13.71;77.55;101998.94;5031192;28;20400;-64
2022/08/31 04:23:50;;;;;;;4.13;3.40;;;;;;;13.70;77.98;102002.63;5042741;28;20043;-66
2022/08/31 04:26:25;;;;;;;3.58;2.70;;;;;;;13.71;77.75;102003.53;5038683;28;20188;-65
2022/08/31 04:28:51;;;;;;;5.60;3.20;;;;;;;13.66;77.90;102008.41;5022713;28;20045;-65
2022/08/31 04:31:19;;;;;;;3.55;2.70;;;;;;;13.63;78.61;101997.69;5024206;28;20042;-65
2022/08/31 04:33:44;;;;;;;3.58;2.58;;;;;;;13.56;77.96;102004.53;5022844;28;20017;-64
2022/08/31 04:36:13;;;;;;;5.13;2.88;;;;;;;13.53;78.02;102003.78;5020814;28;20037;-65
2022/08/31 04:38:43;;;;;;;5.57;2.90;;;;;;;13.52;78.03;102010.25;5005718;28;20130;-66
2022/08/31 04:41:11;;;;;;;3.65;2.85;;;;;;;13.53;77.95;102002.91;5020858;28;20033;-65
2022/08/31 04:43:41;;;;;;;3.28;2.53;;;;;;;13.52;77.11;102007.50;5014892;28;20032;-66
2022/08/31 04:46:07;;;;;;;3.50;2.40;;;;;;;13.51;77.40;102002.13;5031944;28;20038;-65
2022/08/31 04:48:34;;;;;;;3.75;2.63;;;;;;;13.49;77.97;102001.34;5023846;28;20037;-65
2022/08/31 04:51:08;;;;;;;3.40;2.40;;;;;;;13.49;77.55;102004.09;5025452;28;20100;-65
2022/08/31 04:53:37;;;;;;;4.95;2.67;;;;;;;13.48;77.51;102010.53;5006864;28;20489;-65
2022/08/31 04:56:06;;;;;;;6.53;2.42;;;;;;;13.44;77.46;102012.59;5018832;28;20037;-65
2022/08/31 04:58:32;;;;;;;5.05;2.72;;;;;;;13.43;77.46;102019.03;5002126;28;20033;-66
2022/08/31 05:00:57;;;;;;;4.00;2.72;;;;;;;13.44;77.12;102014.44;5004701;28;20103;-65
2022/08/31 05:03:52;;;;;;;6.13;2.60;;;;;;;13.42;76.99;102020.00;4968559;28;20101;-66
2022/08/31 05:06:20;;;;;;;11.35;2.72;;;;;;;13.41;76.42;102020.09;5023060;28;20025;-64
2022/08/31 05:08:46;;;;;;;9.93;3.13;;;;;;;13.37;77.18;102022.16;5005751;28;20527;-69
2022/08/31 05:11:15;;;;;;;2.95;2.35;;;;;;;13.33;76.84;102017.88;5021551;28;20571;-65
2022/08/31 05:13:41;;;;;;;6.15;2.33;;;;;;;13.32;76.88;102017.97;5020640;28;20052;-65
2022/08/31 05:16:09;;;;;;;3.65;2.65;;;;;;;13.27;77.45;102021.00;5026130;28;20568;-66
2022/08/31 05:18:40;;;;;;;9.57;2.58;;;;;;;13.27;77.08;102021.00;5027840;28;20492;-65
2022/08/31 05:21:15;;;;;;;2.47;2.28;;;;;;;13.26;76.63;102011.06;5007898;28;20129;-67
2022/08/31 05:23:41;;;;;;;4.25;2.30;;;;;;;13.27;76.69;102018.28;5026171;28;20542;-65
2022/08/31 05:26:08;;;;;;;2.28;1.92;;;;;;;13.25;76.41;102022.97;5020927;28;20119;-67
2022/08/31 05:28:34;;;;;;;3.17;2.17;;;;;;;13.24;76.66;102033.03;5010708;28;20148;-64
2022/08/31 05:31:00;;;;;;;4.00;2.53;;;;;;;13.25;76.12;102031.19;5026952;28;20436;-66
2022/08/31 05:33:32;;;;;;;;;;;;;;;13.31;75.08;102032.63;5027257;28;20029;-65
2022/08/31 05:36:01;;;;;;;4.60;2.40;;;;;;;13.27;76.83;102031.94;5026336;28;20008;-66
2022/08/31 05:38:26;;;;;;;3.95;2.60;;;;;;;13.29;75.73;102035.47;5027441;28;20041;-66
2022/08/31 05:40:53;;;;;;;4.50;1.90;;;;;;;13.33;75.32;102036.13;5026660;28;20036;-67
2022/08/31 05:43:20;;;;;;;2.40;2.20;;;;;;;13.36;75.05;102033.19;5025013;28;20416;-66
2022/08/31 05:45:46;;;;;;;3.75;2.08;;;;;;;13.39;74.66;102030.28;5025584;28;20039;-67
2022/08/31 05:48:11;;;;;;;5.32;2.25;;;;;;;13.43;74.78;102035.44;5026355;28;20029;-66
2022/08/31 05:50:37;;;;;;;3.90;1.98;;;;;;;13.44;74.36;102031.72;5026425;28;20103;-67
2022/08/31 05:53:03;;;;;;;5.45;2.40;;;;;;;13.46;74.21;102034.34;5026524;28;20661;-66
2022/08/31 05:55:30;;;;;;;5.07;2.20;;;;;;;13.48;74.45;102043.34;5027784;28;20097;-65
2022/08/31 05:57:56;;;;;;;2.63;2.00;;;;;;;13.47;73.71;102034.25;5008764;28;20033;-66
2022/08/31 06:00:21;;;;;;;5.72;2.42;;;;;;;13.50;73.56;102036.78;5026315;28;20059;-66
2022/08/31 06:02:54;;;;;;;4.28;1.90;;;;;;;13.50;73.63;102036.78;5026227;28;20528;-65
2022/08/31 06:05:19;;;;;;;2.28;2.00;;;;;;;13.53;73.15;102031.13;5022779;28;20038;-65
2022/08/31 06:07:46;;;;;;;2.28;1.90;;;;;;;13.56;74.21;102040.97;5006878;28;20041;-65
2022/08/31 06:10:14;;;;;;;3.30;2.15;;;;;;;13.59;72.92;102039.91;5006441;28;20094;-66
2022/08/31 06:12:41;;;;;;;3.08;2.30;;;;;;;13.63;73.75;102042.31;5005806;28;20115;-65
2022/08/31 06:15:08;;;;;;;3.90;1.92;;;;;;;13.69;72.45;102050.13;5026627;28;20104;-66
2022/08/31 06:17:34;;;;;;;2.75;2.03;;;;;;;13.72;72.92;102044.44;5026236;28;20044;-65
2022/08/31 06:20:00;;;;;;;1.63;1.50;;;;;;;13.77;72.72;102052.34;5026371;28;20025;-65
2022/08/31 06:22:26;;;;;;;5.35;2.05;;;;;;;13.81;72.20;102053.91;5027237;28;20045;-65
2022/08/31 06:24:53;;;;;;;2.95;1.80;;;;;;;13.86;71.80;102049.00;5021841;28;20030;-66
2022/08/31 06:27:19;;;;;;;2.25;1.90;;;;;;;13.93;72.03;102050.31;5003565;28;20037;-65
2022/08/31 06:29:48;;;;;;;3.35;1.88;;;;;;;14.09;70.64;102060.25;5005853;28;20032;-65
2022/08/31 06:32:14;;;;;;;10.05;3.95;;;;;;;14.19;70.29;102053.19;5025664;28;20048;-68
2022/08/31 06:34:48;;;;;;;2.35;1.83;;;;;;;14.28;70.26;102064.38;5025676;28;20570;-65
2022/08/31 06:37:33;;;;;;;2.03;1.35;;;;;;;14.41;69.22;102071.72;5027279;28;20128;-65
2022/08/31 06:40:13;;;;;;;3.35;2.10;;;;;;;14.52;68.37;102077.38;5025457;28;20033;-66
2022/08/31 06:42:53;;;;;;;4.22;1.90;;;;;;;14.64;67.85;102076.53;5024043;28;20448;-67
2022/08/31 06:45:47;;;;;;;5.40;1.92;;;;;;;14.77;68.28;102071.94;5013006;28;20564;-66
2022/08/31 06:48:31;;;;;;;2.78;1.98;;;;;;;14.87;67.07;102080.38;5020075;28;20041;-70
2022/08/31 06:50:57;;;;;;;4.35;1.98;;;;;;;14.96;68.17;102078.84;5027124;28;20401;-66
2022/08/31 06:53:24;;;;;;;6.15;1.98;;;;;;;15.03;66.99;102074.69;5025338;28;20057;-65
2022/08/31 06:56:17;;;;;;;2.47;2.00;;;;;;;15.06;66.92;102077.19;5024078;28;20154;-65
2022/08/31 06:59:02;;;;;;;5.80;1.75;;;;;;;15.08;66.87;102080.72;5025087;28;20052;-66
2022/08/31 07:01:41;;;;;;;4.18;1.80;;;;;;;15.12;66.02;102084.13;5022455;28;20477;-66
2022/08/31 07:04:16;;;;;;;2.95;1.70;;;;;;;15.18;67.12;102094.63;5021306;28;20042;-67
2022/08/31 07:06:43;;;;;;;4.05;1.60;;;;;;;15.20;66.42;102092.66;5022057;28;20133;-65
2022/08/31 07:09:12;;;;;;;2.42;1.80;;;;;;;15.19;65.69;102088.16;5024261;28;20448;-67
2022/08/31 07:11:40;;;;;;;1.98;1.50;;;;;;;15.19;65.97;102088.16;5024752;28;20099;-65
2022/08/31 07:14:07;;;;;;;4.30;1.42;;;;;;;15.20;65.60;102081.69;5023764;28;20112;-65
2022/08/31 07:16:35;;;;;;;4.18;1.67;;;;;;;15.20;65.88;102079.84;5026595;28;20037;-65
2022/08/31 07:19:02;;;;;;;2.40;1.65;;;;;;;15.24;65.28;102084.09;5022713;28;20655;-69
2022/08/31 07:21:31;;;;;;;2.20;1.88;;;;;;;15.29;65.42;102084.66;5006705;28;20502;-65
2022/08/31 07:23:59;;;;;;;3.50;1.83;;;;;;;15.32;65.45;102083.56;5025051;28;20120;-66
2022/08/31 07:26:28;;;;;;;3.80;1.80;;;;;;;15.36;65.10;102082.34;5023004;28;20032;-66
2022/08/31 07:28:55;;;;;;;4.90;1.95;;;;;;;15.40;64.85;102086.63;5023891;28;20120;-66
2022/08/31 07:31:24;;;;;;;4.32;1.60;;;;;;;15.46;65.57;102083.41;5024901;28;20280;-65
2022/08/31 07:33:52;;;;;;;2.22;1.70;;;;;;;15.54;64.08;102093.84;5012107;28;20041;-65
2022/08/31 07:36:17;;;;;;;6.55;2.60;;;;;;;15.56;63.44;102095.47;5024660;28;20032;-66
2022/08/31 07:44:26;;;;;;;3.50;1.92;;;;;;;15.72;64.20;102098.00;5035625;28;20028;-65
2022/08/31 07:46:54;;;;;;;2.13;1.80;;;;;;;15.78;64.15;102091.16;5045873;28;20388;-65
2022/08/31 07:49:21;;;;;;;5.38;1.90;;;;;;;15.84;63.73;102090.69;5031306;28;20439;-66
2022/08/31 07:51:58;;;;;;;2.92;1.75;;;;;;;15.92;64.12;102085.53;5010345;28;20040;-66
2022/08/31 07:54:47;;;;;;;5.10;2.20;;;;;;;15.97;63.35;102093.41;5010757;28;20033;-64
2022/08/31 07:57:24;;;;;;;3.42;2.00;;;;;;;16.04;64.41;102087.34;5024219;28;20033;-66
2022/08/31 08:00:07;;;;;;;3.85;1.98;;;;;;;16.08;63.87;102091.59;5020706;28;20374;-66
2022/08/31 08:02:40;;;;;;;3.47;2.13;;;;;;;16.14;64.57;102082.03;5014913;28;20054;-65
2022/08/31 08:05:09;;;;;;;3.60;2.10;;;;;;;16.19;64.02;102095.41;5032115;28;20504;-66
2022/08/31 08:08:05;;;;;;;6.03;2.53;;;;;;;16.23;64.87;102092.31;5017113;28;20386;-68
2022/08/31 08:10:47;;;;;;;3.38;2.10;;;;;;;16.30;63.46;102093.59;5024044;28;20029;-66
2022/08/31 08:13:31;;;;;;;5.05;2.40;;;;;;;16.39;63.79;102094.75;5020186;28;20044;-66
2022/08/31 08:16:15;;;;;;;3.55;2.17;;;;;;;16.50;64.17;102097.53;5024243;28;20539;-65
2022/08/31 08:18:59;;;;;;;8.65;2.10;;;;;;;16.59;63.51;102098.69;5024271;28;20048;-65
2022/08/31 08:21:27;;;;;;;5.95;2.17;;;;;;;16.69;63.43;102101.59;4989648;28;20030;-65
2022/08/31 08:23:52;;;;;;;3.95;2.10;;;;;;;16.76;63.30;102101.03;5024500;28;20037;-68
2022/08/31 08:26:40;;;;;;;3.40;2.35;;;;;;;16.80;63.85;102108.06;5022590;28;20408;-65
2022/08/31 08:29:24;;;;;;;3.22;2.08;;;;;;;16.93;62.84;102104.34;5017954;28;20539;-69
2022/08/31 08:31:53;;;;;;;5.47;2.63;;;;;;;17.03;62.26;102099.88;5024204;28;20073;-65
2022/08/31 08:34:22;;;;;;;4.68;2.30;;;;;;;17.06;62.59;102105.97;5022281;28;20033;-65
2022/08/31 08:36:48;;;;;;;4.93;2.17;;;;;;;17.15;61.83;102109.88;5024025;28;20040;-65
2022/08/31 08:39:14;;;;;;;5.53;2.20;;;;;;;17.22;62.75;102102.88;5023621;28;20146;-65
2022/08/31 08:41:54;;;;;;;4.00;2.25;;;;;;;17.38;62.92;102110.75;5008127;28;20644;-67
2022/08/31 08:44:22;;;;;;;5.38;2.20;;;;;;;17.51;61.89;102117.03;5003753;28;20034;-66
2022/08/31 08:46:53;;;;;;;6.05;2.67;;;;;;;17.62;61.07;102118.00;5040035;28;20448;-65
2022/08/31 08:49:34;;;;;;;3.53;2.38;;;;;;;17.87;61.95;102120.53;5023871;28;20065;-65
2022/08/31 08:52:10;;;;;;;5.55;2.40;;;;;;;18.18;61.63;102115.19;5013961;28;20485;-69
2022/08/31 08:54:39;;;;;;;3.20;2.53;;;;;;;18.38;59.30;102111.66;5026951;28;20121;-66
2022/08/31 08:57:29;;;;;;;5.22;2.60;;;;;;;18.64;60.07;102117.66;5026549;28;20619;-66
2022/08/31 09:00:01;;;;;;;2.60;2.40;;;;;;;18.81;60.20;102110.72;5027599;28;20025;-65
2022/08/31 09:02:40;;;;;;;8.30;2.67;;;;;;;19.08;57.80;102115.72;5027468;28;20683;-67
2022/08/31 09:05:23;;;;;;;5.93;2.30;;;;;;;19.34;58.05;102113.38;5027063;28;20382;-66
2022/08/31 09:08:38;;;;;;;2.80;2.38;;;;;;;19.59;56.22;102103.78;5027651;28;20033;-66
2022/08/31 09:11:37;;;;;;;3.35;2.53;;;;;;;19.77;57.25;102098.47;5035992;28;20037;-66
2022/08/31 09:14:52;;;;;;;5.75;2.60;;;;;;;20.18;57.59;102102.94;5038265;28;20068;-67
2022/08/31 09:17:40;;;;;;;4.95;2.72;;;;;;;20.25;56.07;102104.13;5011467;28;20041;-66
2022/08/31 09:20:11;;;;;;;5.47;3.03;;;;;;;20.22;54.31;102104.41;5019603;28;20493;-65
2022/08/31 09:22:51;;;;;;;3.35;2.80;;;;;;;20.31;55.35;102095.25;5028584;28;20041;-66
2022/08/31 09:25:32;;;;;;;5.65;2.97;;;;;;;20.50;55.28;102093.53;5026777;28;20033;-66
2022/08/31 09:28:06;;;;;;;5.72;3.50;;;;;;;20.50;54.57;102088.03;5027781;28;20042;-65
2022/08/31 09:30:43;;;;;;;3.97;2.73;;;;;;;20.84;56.67;102088.41;5028377;28;20049;-66
2022/08/31 09:33:18;;;;;;;8.02;3.00;;;;;;;21.00;55.42;102098.91;5028344;28;20500;-66
2022/08/31 09:35:44;;;;;;;4.20;2.72;;;;;;;20.99;53.06;102095.25;5027538;28;20515;-66
2022/08/31 09:38:27;;;;;;;6.05;3.08;;;;;;;20.86;55.62;102100.22;5028458;28;20025;-65
2022/08/31 09:40:53;;;;;;;6.75;2.97;;;;;;;20.88;53.77;102099.03;5028162;28;20152;-65
2022/08/31 09:43:37;;;;;;;4.40;2.63;;;;;;;20.95;53.63;102101.25;5026354;28;20465;-65
2022/08/31 09:46:25;;;;;;;6.07;3.00;;;;;;;20.66;54.42;102101.25;5026902;28;20041;-65
2022/08/31 09:48:57;;;;;;;5.50;3.00;;;;;;;20.73;55.28;102100.53;5027628;28;20064;-65
2022/08/31 09:51:29;;;;;;;5.68;3.42;;;;;;;20.89;55.20;102108.25;5008629;28;20501;-65
2022/08/31 09:56:55;;;;;;;6.60;2.67;;;;;;;21.46;54.47;102098.06;5008164;28;20145;-66
2022/08/31 09:59:48;;;;;;;6.45;3.20;;;;;;;21.70;51.99;102102.19;5008462;28;20080;-66
2022/08/31 10:02:23;;;;;;;7.90;3.08;;;;;;;21.91;54.48;102091.72;5008703;28;20050;-66
2022/08/31 10:05:16;;;;;;;6.88;3.42;;;;;;;22.08;51.79;102084.47;5020210;28;20045;-66
2022/08/31 10:08:03;;;;;;;4.65;2.95;;;;;;;22.60;52.39;102076.34;4987270;28;20045;-65
2022/08/31 10:10:35;;;;;;;6.65;3.40;;;;;;;22.79;50.10;102086.38;5048157;28;20053;-66
2022/08/31 10:13:12;;;;;;;7.32;4.10;;;;;;;23.00;49.94;102088.88;5031405;28;20615;-67
2022/08/31 10:15:47;;;;;;;10.35;3.60;;;;;;;23.14;49.46;102080.81;5020503;28;20122;-66
2022/08/31 10:18:30;;;;;;;5.70;3.67;;;;;;;23.25;48.14;102079.66;5027009;28;20049;-66
2022/08/31 10:21:09;;;;;;;9.25;3.50;;;;;;;23.27;49.55;102077.59;5009183;28;20057;-65
2022/08/31 10:24:07;;;;;;;8.35;4.00;;;;;;;22.76;50.12;102086.72;5025807;28;20457;-66
2022/08/31 10:26:37;;;;;;;4.38;3.10;;;;;;;22.72;51.03;102071.44;5026644;28;20068;-66
2022/08/31 10:29:19;;;;;;;5.53;3.75;;;;;;;23.00;50.70;102067.53;5009816;28;20037;-68
2022/08/31 10:31:52;;;;;;;7.20;3.75;;;;;;;23.10;50.78;102072.97;5007754;28;20052;-66
2022/08/31 10:37:14;;;;;;;6.13;3.75;;;;;;;22.95;48.02;102082.94;5027271;28;20029;-66
2022/08/31 10:40:18;;;;;;;5.40;3.13;;;;;;;23.03;50.99;102072.72;5026366;28;20051;-66
2022/08/31 10:43:08;;;;;;;6.72;3.97;;;;;;;23.10;49.40;102068.28;5025289;28;20124;-65
2022/08/31 10:45:39;;;;;;;7.38;3.17;;;;;;;23.38;49.31;102079.22;5007175;28;20049;-65
2022/08/31 10:48:05;;;;;;;6.50;3.95;;;;;;;23.59;46.78;102076.00;5007334;28;20625;-65
2022/08/31 10:50:55;;;;;;;8.35;4.45;;;;;;;23.46;48.99;102067.28;5021321;28;20060;-70
2022/08/31 10:53:30;;;;;;;11.02;3.90;;;;;;;23.50;49.20;102065.88;5026907;28;20071;-66
2022/08/31 10:56:02;;;;;;;44.67;4.88;;;;;;;23.73;48.89;102063.41;5008110;28;20057;-65
2022/08/31 10:58:47;;;;;;;7.57;4.15;;;;;;;24.09;49.06;102066.84;5024559;28;20037;-66
2022/08/31 11:01:19;;;;;;;8.02;3.33;;;;;;;24.32;48.41;102065.16;5026733;28;20041;-66
2022/08/31 11:04:18;;;;;;;5.85;3.40;;;;;;;24.17;47.42;102073.31;5013938;28;20058;-65
2022/08/31 11:06:58;;;;;;;4.07;3.78;;;;;;;24.19;47.61;102065.63;5007426;28;20133;-65
2022/08/31 11:09:32;;;;;;;5.20;3.40;;;;;;;24.38;48.27;102053.34;5006510;28;20436;-66
2022/08/31 11:12:21;;;;;;;7.43;3.00;;;;;;;24.96;49.14;102061.72;5008862;28;20070;-66
2022/08/31 11:15:08;;;;;;;7.40;3.40;;;;;;;25.27;46.65;102057.16;5026184;28;20520;-66
2022/08/31 11:17:40;;;;;;;4.38;3.63;;;;;;;25.54;46.41;102057.75;5026496;28;20076;-66
2022/08/31 11:20:48;;;;;;;8.32;3.95;;;;;;;25.55;45.64;102052.00;5024506;28;20485;-65
2022/08/31 11:23:31;;;;;;;8.13;3.65;;;;;;;25.56;44.22;102048.19;5025688;28;20172;-65
2022/08/31 11:26:05;;;;;;;8.57;3.28;;;;;;;25.58;44.74;102059.16;5017021;28;20041;-66
2022/08/31 11:28:51;;;;;;;5.15;3.40;;;;;;;25.96;44.12;102049.06;5015284;28;20053;-69
2022/08/31 11:31:23;;;;;;;16.98;3.45;;;;;;;26.15;43.75;102050.50;5026426;28;20385;-66
2022/08/31 11:33:56;;;;;;;7.95;3.75;;;;;;;26.11;43.20;102044.44;5025739;28;20049;-68
2022/08/31 11:36:40;;;;;;;;;;;;;;;26.48;44.81;102037.22;5007452;28;20393;-66
2022/08/31 11:39:06;;;;;;;6.72;3.08;;;;;;;26.51;41.72;102042.44;5006067;28;19914;-65
2022/08/31 11:41:49;;;;;;;9.95;3.35;;;;;;;26.47;42.80;102043.84;5010244;28;20068;-66
2022/08/31 11:44:29;;;;;;;9.63;3.38;;;;;;;26.31;43.49;102039.25;5024804;28;20491;-64
2022/08/31 11:47:28;;;;;;;4.78;3.17;;;;;;;26.39;43.79;102033.63;5026357;28;20097;-66
2022/08/31 11:49:55;;;;;;;9.20;3.20;;;;;;;26.57;41.72;102043.59;5025773;28;20041;-65
2022/08/31 11:52:23;;;;;;;4.95;2.72;;;;;;;26.60;41.84;102035.72;5025973;28;20108;-65
2022/08/31 11:54:49;;;;;;;7.28;3.08;;;;;;;26.10;43.76;102034.31;5025774;28;20378;-65
2022/08/31 11:57:27;;;;;;;4.82;3.65;;;;;;;25.73;43.39;102035.03;5021644;28;20037;-67
2022/08/31 11:59:54;;;;;;;5.00;3.25;;;;;;;25.43;43.58;102029.25;5023782;28;20041;-66
2022/08/31 12:02:20;;;;;;;11.60;3.28;;;;;;;25.52;43.72;102024.50;5021860;28;20519;-66
2022/08/31 12:04:46;;;;;;;6.80;3.25;;;;;;;25.80;43.66;102021.28;5006101;28;20049;-65
2022/08/31 12:07:27;;;;;;;6.72;3.72;;;;;;;26.02;43.06;102028.81;5006184;28;20042;-65